createdAt,value
2019-04-04T00:04:06.175Z,21.72
2019-04-04T00:09:10.957Z,21.63
2019-04-04T00:14:14.775Z,21.62
2019-04-04T00:19:18.567Z,21.56
2019-04-04T00:24:22.353Z,21.58
2019-04-04T00:29:26.134Z,21.58
2019-04-04T00:34:30.101Z,21.55
2019-04-04T00:39:33.888Z,21.45
2019-04-04T00:44:37.673Z,21.52
2019-04-04T00:49:41.472Z,21.52
2019-04-04T00:54:45.474Z,21.50
2019-04-04T00:59:49.571Z,21.50
2019-04-04T01:04:53.430Z,21.50
2019-04-04T01:09:57.237Z,21.50
2019-04-04T01:15:01.054Z,21.51
2019-04-04T01:20:07.016Z,21.53
2019-04-04T01:25:11.283Z,21.58
2019-04-04T01:30:15.063Z,21.57
2019-04-04T01:35:18.953Z,21.57
2019-04-04T01:40:22.780Z,21.54
2019-04-04T01:45:26.598Z,21.54
2019-04-04T01:50:30.366Z,21.44
2019-04-04T01:55:35.034Z,21.50
2019-04-04T02:00:39.447Z,21.42
2019-04-04T02:05:43.240Z,21.33
2019-04-04T02:10:47.031Z,21.33
2019-04-04T02:15:50.817Z,21.17
2019-04-04T02:20:57.537Z,21.06
2019-04-04T02:26:00.101Z,21.02
2019-04-04T02:31:05.557Z,21.00
2019-04-04T02:36:09.384Z,20.89
2019-04-04T02:41:15.386Z,20.88
2019-04-04T02:46:18.787Z,20.95
2019-04-04T02:51:22.702Z,20.92
2019-04-04T02:56:26.477Z,20.86
2019-04-04T03:01:32.090Z,20.86
2019-04-04T03:06:35.831Z,20.90
2019-04-04T03:11:39.628Z,20.86
2019-04-04T03:16:43.424Z,20.83
2019-04-04T03:21:47.209Z,20.83
2019-04-04T03:26:52.620Z,20.81
2019-04-04T03:31:56.579Z,20.70
2019-04-04T03:37:00.472Z,20.80
2019-04-04T03:42:06.969Z,20.80
2019-04-04T03:47:10.391Z,20.75
2019-04-04T03:52:15.181Z,20.75
2019-04-04T03:57:18.975Z,20.72
2019-04-04T04:02:23.000Z,20.73
2019-04-04T04:07:26.879Z,20.63
2019-04-04T04:12:30.789Z,20.63
2019-04-04T04:17:36.496Z,20.68
2019-04-04T04:22:40.237Z,20.68
2019-04-04T04:27:47.376Z,20.64
2019-04-04T04:32:49.624Z,20.62
2019-04-04T04:37:53.948Z,20.62
2019-04-04T04:43:00.714Z,20.58
2019-04-04T04:48:03.508Z,20.56
2019-04-04T04:53:07.423Z,20.54
2019-04-04T04:58:11.405Z,20.51
2019-04-04T05:03:15.264Z,20.48
2019-04-04T05:08:19.108Z,20.48
2019-04-04T05:13:24.626Z,20.48
2019-04-04T05:18:28.493Z,20.36
2019-04-04T05:23:32.365Z,20.42
2019-04-04T05:28:36.230Z,20.42
2019-04-04T05:33:40.007Z,20.41
2019-04-04T05:38:46.878Z,20.32
2019-04-04T05:43:49.346Z,20.32
2019-04-04T05:48:53.235Z,20.37
2019-04-04T05:53:57.044Z,20.38
2019-04-04T05:59:00.810Z,20.38
2019-04-04T06:04:04.701Z,20.41
2019-04-04T06:09:08.849Z,20.38
2019-04-04T06:14:12.623Z,20.38
2019-04-04T06:19:16.395Z,20.38
2019-04-04T06:24:20.340Z,20.38
2019-04-04T06:29:24.138Z,20.40
2019-04-04T06:34:27.917Z,20.38
2019-04-04T06:39:31.737Z,20.38
2019-04-04T06:44:35.546Z,20.37
2019-04-04T06:49:39.334Z,20.37
2019-04-04T06:54:43.149Z,20.41
2019-04-04T06:59:46.947Z,16.52
2019-04-04T07:04:50.737Z,15.92
2019-04-04T07:09:54.529Z,15.20
2019-04-04T07:14:58.317Z,15.16
2019-04-04T07:20:02.127Z,15.39
2019-04-04T07:25:06.884Z,15.39
2019-04-04T07:30:10.816Z,16.98
2019-04-04T07:35:16.845Z,18.47
2019-04-04T07:40:20.431Z,18.47
2019-04-04T07:45:26.744Z,19.86
2019-04-04T07:50:29.888Z,19.98
2019-04-04T07:55:34.501Z,20.18
2019-04-04T08:00:38.289Z,20.35
2019-04-04T08:05:42.145Z,20.42
2019-04-04T08:10:46.042Z,20.48
2019-04-04T08:15:49.875Z,20.53
2019-04-04T08:20:53.675Z,20.54
2019-04-04T08:25:57.508Z,20.55
2019-04-04T08:31:01.345Z,20.55
2019-04-04T08:36:06.501Z,20.50
2019-04-04T08:41:10.510Z,20.50
2019-04-04T08:46:14.368Z,20.57
2019-04-04T08:51:18.211Z,20.58
2019-04-04T08:56:22.017Z,20.58
2019-04-04T09:01:25.821Z,20.58
2019-04-04T09:06:29.679Z,20.58
2019-04-04T09:11:33.514Z,20.58
2019-04-04T09:16:37.340Z,20.56
2019-04-04T09:21:41.132Z,20.57
2019-04-04T09:26:44.949Z,20.58
2019-04-04T09:31:48.772Z,20.58
2019-04-04T09:36:52.581Z,20.56
2019-04-04T09:41:56.413Z,20.57
2019-04-04T09:47:05.524Z,20.57
2019-04-04T09:52:05.850Z,20.55
2019-04-04T09:57:09.630Z,20.56
2019-04-04T10:02:13.502Z,20.52
2019-04-04T10:07:17.320Z,20.53
2019-04-04T10:12:21.140Z,20.53
2019-04-04T10:17:24.963Z,20.54
2019-04-04T10:22:28.877Z,20.54
2019-04-04T10:27:32.665Z,20.53
2019-04-04T10:32:36.502Z,20.57
2019-04-04T10:37:40.290Z,20.54
2019-04-04T10:42:44.217Z,20.53
2019-04-04T10:47:48.831Z,20.53
2019-04-04T10:52:52.634Z,20.56
2019-04-04T10:57:56.424Z,20.55
2019-04-04T11:03:00.232Z,20.55
2019-04-04T11:08:04.025Z,20.56
2019-04-04T11:13:08.038Z,20.65
2019-04-04T11:18:11.996Z,20.69
2019-04-04T11:23:15.755Z,20.74
2019-04-04T11:28:19.532Z,20.06
2019-04-04T11:33:23.299Z,19.97
2019-04-04T11:38:27.090Z,19.97
2019-04-04T11:43:30.961Z,19.92
2019-04-04T11:48:34.743Z,19.90
2019-04-04T11:53:38.566Z,19.90
2019-04-04T11:58:42.364Z,20.02
2019-04-04T12:03:46.157Z,20.02
2019-04-04T12:08:49.925Z,19.89
2019-04-04T12:13:53.899Z,19.89
2019-04-04T12:18:57.658Z,20.01
2019-04-04T12:24:01.461Z,19.88
2019-04-04T12:29:05.311Z,19.86
2019-04-04T12:34:09.122Z,19.83
2019-04-04T12:39:15.186Z,19.80
2019-04-04T12:44:19.034Z,19.80
2019-04-04T12:49:22.808Z,19.89
2019-04-04T12:54:26.617Z,19.89
2019-04-04T12:59:30.385Z,19.95
2019-04-04T13:04:34.286Z,20.04
2019-04-04T13:09:38.107Z,20.34
2019-04-04T13:14:41.875Z,20.34
2019-04-04T13:19:45.680Z,20.64
2019-04-04T13:24:49.477Z,20.74
2019-04-04T13:29:53.289Z,20.83
2019-04-04T13:34:59.626Z,20.83
2019-04-04T13:40:02.899Z,20.81
2019-04-04T13:45:06.714Z,20.83
2019-04-04T13:50:12.595Z,20.88
2019-04-04T13:55:16.733Z,20.87
2019-04-04T14:00:20.719Z,20.89
2019-04-04T14:05:32.085Z,20.90
2019-04-04T14:10:35.893Z,20.90
2019-04-04T14:15:39.715Z,20.98
2019-04-04T14:20:43.550Z,20.97
2019-04-04T14:25:53.038Z,21.03
2019-04-04T14:30:56.783Z,21.03
2019-04-04T14:36:00.552Z,21.08
2019-04-04T14:41:11.021Z,21.09
2019-04-04T14:46:09.965Z,20.99
2019-04-04T14:51:13.778Z,20.99
2019-04-04T14:56:17.607Z,21.10
2019-04-04T15:01:21.564Z,21.16
2019-04-04T15:06:25.406Z,21.23
2019-04-04T15:11:29.261Z,21.24
2019-04-04T15:16:33.108Z,21.25
2019-04-04T15:21:37.466Z,21.25
2019-04-04T15:26:41.225Z,21.29
2019-04-04T15:31:45.069Z,21.33
2019-04-04T15:36:48.846Z,21.36
2019-04-04T15:41:52.603Z,21.39
2019-04-04T15:46:56.582Z,21.50
2019-04-04T15:52:00.406Z,21.48
2019-04-04T15:57:04.267Z,21.60
2019-04-04T16:02:08.107Z,21.56
2019-04-04T16:07:11.935Z,21.81
2019-04-04T16:12:15.798Z,21.97
2019-04-04T16:17:19.597Z,22.33
2019-04-04T16:22:23.648Z,22.33
2019-04-04T16:27:27.484Z,22.42
2019-04-04T16:32:31.303Z,22.31
2019-04-04T16:37:35.155Z,22.44
2019-04-04T16:42:38.961Z,22.44
2019-04-04T16:47:42.841Z,22.47
2019-04-04T16:52:46.765Z,22.53
2019-04-04T16:57:50.526Z,22.55
2019-04-04T17:02:54.331Z,22.52
2019-04-04T17:07:58.117Z,22.56
2019-04-04T17:13:01.969Z,22.44
2019-04-04T17:18:05.830Z,22.44
2019-04-04T17:23:09.615Z,22.41
2019-04-04T17:28:13.419Z,22.41
2019-04-04T17:33:17.336Z,22.31
2019-04-04T17:38:21.568Z,22.28
2019-04-04T17:43:25.383Z,22.40
2019-04-04T17:48:31.642Z,22.29
2019-04-04T17:53:35.416Z,22.29
2019-04-04T17:58:39.376Z,22.62
2019-04-04T18:03:43.283Z,22.66
2019-04-04T18:08:47.081Z,22.70
2019-04-04T18:13:50.963Z,22.65
2019-04-04T18:18:54.829Z,22.63
2019-04-04T18:23:58.617Z,22.62
2019-04-04T18:29:02.432Z,22.56
2019-04-04T18:34:08.338Z,22.51
2019-04-04T18:39:12.087Z,22.51
2019-04-04T18:44:15.918Z,22.49
2019-04-04T18:49:19.791Z,22.45
2019-04-04T18:54:23.692Z,22.40
2019-04-04T18:59:27.529Z,22.39
2019-04-04T19:04:31.353Z,22.42
2019-04-04T19:09:35.270Z,22.45
2019-04-04T19:14:39.076Z,22.46
2019-04-04T19:19:42.978Z,22.43
2019-04-04T19:24:46.770Z,22.43
2019-04-04T19:29:50.571Z,22.36
2019-04-04T19:34:54.370Z,22.33
2019-04-04T19:39:58.181Z,22.29
2019-04-04T19:45:02.036Z,22.27
2019-04-04T19:50:06.470Z,22.27
2019-04-04T19:55:10.324Z,22.21
2019-04-04T20:00:14.209Z,22.18
2019-04-04T20:05:18.237Z,22.18
2019-04-04T20:10:22.107Z,22.16
2019-04-04T20:15:25.979Z,22.07
2019-04-04T20:20:29.793Z,22.12
2019-04-04T20:25:33.590Z,22.12
2019-04-04T20:30:37.972Z,22.12
2019-04-04T20:35:41.807Z,22.10
2019-04-04T20:40:45.603Z,22.13
2019-04-04T20:45:49.387Z,22.15
2019-04-04T20:50:53.268Z,22.15
2019-04-04T20:55:57.207Z,22.13
2019-04-04T21:01:00.992Z,22.13
2019-04-04T21:06:04.832Z,22.11
2019-04-04T21:11:08.826Z,22.10
2019-04-04T21:16:12.759Z,22.12
2019-04-04T21:21:16.563Z,22.12
2019-04-04T21:26:20.452Z,22.10
2019-04-04T21:31:24.245Z,22.08
2019-04-04T21:36:28.123Z,22.06
2019-04-04T21:41:31.921Z,22.08
2019-04-04T21:46:35.803Z,22.07
2019-04-04T21:51:39.752Z,22.10
2019-04-04T21:56:43.688Z,22.07
2019-04-04T22:01:47.489Z,22.05
2019-04-04T22:06:51.450Z,22.02
2019-04-04T22:11:55.266Z,22.02
2019-04-04T22:16:59.149Z,22.07
2019-04-04T22:22:02.946Z,22.00
2019-04-04T22:27:06.834Z,22.02
2019-04-04T22:32:10.648Z,21.97
2019-04-04T22:37:14.440Z,21.99
2019-04-04T22:42:18.297Z,21.96
2019-04-04T22:47:22.156Z,21.88
2019-04-04T22:58:46.637Z,21.95
2019-04-04T23:03:50.459Z,21.92
2019-04-04T23:08:54.241Z,21.90
2019-04-04T23:13:58.127Z,21.90
2019-04-04T23:19:01.933Z,21.83
2019-04-04T23:24:06.041Z,21.81
2019-04-04T23:29:09.820Z,21.76
2019-04-04T23:34:13.756Z,21.76
2019-04-04T23:39:17.911Z,21.73
2019-04-04T23:44:21.677Z,21.72
2019-04-04T23:59:31.755Z,21.66
